Terminal Aerodrome Forecast
Issued by NWS

Home | Current Version | Previous Version | Text Only | Print | Product List | Glossary On
Versions: 1 2 3 4 5 6 7 8 9 10 11 12 13 14 15 16 17 18 19
000
FTUS46 KSGX 042322
TAFCRQ
TAF
KCRQ 042322Z 0500/0524 28009KT P6SM SKC
     FM050200 VRB03KT P6SM FEW010
     FM050600 VRB03KT 6SM BR BKN007
     FM051200 VRB03KT 5SM BR OVC005
     FM051600 VRB05KT P6SM SCT012
     FM052000 28011KT P6SM SKC=

USA.gov is the U.S. government's official web portal to all federal, state and local government web resources and services.